createdAt,value
2022-09-18T00:00:35.781Z,9.33
2022-09-18T00:05:44.492Z,9.17
2022-09-18T00:10:51.225Z,9.21
2022-09-18T00:15:59.478Z,9.16
2022-09-18T00:21:06.897Z,9.0
2022-09-18T00:26:16.319Z,9.21
2022-09-18T00:31:23.152Z,9.16
2022-09-18T00:36:30.975Z,9.1
2022-09-18T00:41:39.425Z,9.08
2022-09-18T00:46:46.663Z,8.88
2022-09-18T00:51:55.009Z,9.03
2022-09-18T00:57:02.404Z,9.39
2022-09-18T01:02:10.554Z,9.62
2022-09-18T01:07:18.061Z,9.79
2022-09-18T01:12:25.268Z,10.01
2022-09-18T01:17:33.118Z,10.17
2022-09-18T01:22:40.823Z,10.15
2022-09-18T01:27:48.526Z,10.16
2022-09-18T01:32:56.367Z,10.18
2022-09-18T01:38:04.365Z,10.11
2022-09-18T01:43:13.175Z,10.17
2022-09-18T01:48:20.777Z,10.25
2022-09-18T01:53:27.990Z,10.22
2022-09-18T01:58:35.207Z,10.15
2022-09-18T02:03:49.468Z,10.14
2022-09-18T02:08:56.590Z,9.89
2022-09-18T02:14:03.785Z,9.62
2022-09-18T02:19:12.666Z,9.4
2022-09-18T02:24:21.749Z,9.18
2022-09-18T02:29:30.376Z,9.03
2022-09-18T02:34:38.806Z,9.16
2022-09-18T02:42:48.603Z,9.56
2022-09-18T02:47:53.222Z,9.57
2022-09-18T02:53:01.110Z,9.4
2022-09-18T02:58:09.206Z,9.42
2022-09-18T03:03:16.404Z,9.34
2022-09-18T03:08:24.693Z,9.26
2022-09-18T03:13:32.425Z,9.4
2022-09-18T03:18:39.810Z,9.72
2022-09-18T03:23:48.648Z,9.84
2022-09-18T03:28:57.750Z,9.69
2022-09-18T03:34:06.486Z,9.74
2022-09-18T03:39:15.623Z,9.74
2022-09-18T03:44:22.602Z,9.62
2022-09-18T03:49:29.684Z,9.66
2022-09-18T03:54:37.059Z,9.65
2022-09-18T03:59:44.550Z,9.8
2022-09-18T04:04:52.629Z,9.9
2022-09-18T04:10:07.614Z,9.84
2022-09-18T04:15:16.187Z,9.76
2022-09-18T04:20:24.263Z,9.64
2022-09-18T04:25:31.830Z,9.62
2022-09-18T04:30:39.201Z,9.6
2022-09-18T04:35:46.818Z,9.57
2022-09-18T04:40:55.810Z,9.54
2022-09-18T04:46:03.142Z,9.58
2022-09-18T04:51:11.299Z,9.57
2022-09-18T04:56:18.810Z,9.56
2022-09-18T05:01:27.798Z,9.54
2022-09-18T05:06:35.339Z,9.59
2022-09-18T05:11:42.961Z,9.6
2022-09-18T05:16:51.066Z,9.6
2022-09-18T05:21:58.487Z,9.71
2022-09-18T05:27:07.001Z,9.71
2022-09-18T05:32:15.270Z,9.69
2022-09-18T05:37:24.234Z,9.46
2022-09-18T05:42:32.681Z,9.42
2022-09-18T05:47:41.230Z,9.42
2022-09-18T05:52:49.891Z,9.47
2022-09-18T05:57:57.544Z,9.56
2022-09-18T06:03:05.858Z,9.74
2022-09-18T06:08:14.221Z,9.92
2022-09-18T06:13:22.699Z,10.16
2022-09-18T06:18:30.391Z,10.19
2022-09-18T06:23:38.502Z,10.1
2022-09-18T06:28:45.679Z,10.26
2022-09-18T06:33:54.699Z,10.57
2022-09-18T06:39:06.795Z,12.66
2022-09-18T06:44:16.305Z,14.89
2022-09-18T06:49:24.396Z,16.03
2022-09-18T06:54:33.219Z,21.52
2022-09-18T06:59:43.570Z,20.96
2022-09-18T07:04:54.728Z,20.41
2022-09-18T07:10:10.215Z,21.4
2022-09-18T07:15:19.750Z,18.84
2022-09-18T07:20:34.702Z,16.3
2022-09-18T07:25:43.139Z,15.24
2022-09-18T07:30:53.746Z,16.21
2022-09-18T07:36:01.884Z,18.86
2022-09-18T07:41:08.737Z,21.56
2022-09-18T07:46:17.047Z,20.82
2022-09-18T07:51:24.988Z,20.24
2022-09-18T07:56:32.864Z,18.57
2022-09-18T08:01:48.789Z,19.94
2022-09-18T08:06:56.356Z,18.12
2022-09-18T08:12:04.098Z,16.36
2022-09-18T08:17:10.017Z,13.58
2022-09-18T08:22:17.355Z,11.89
2022-09-18T08:27:25.243Z,11.22
2022-09-18T08:32:33.220Z,12.03
2022-09-18T08:37:41.113Z,13.36
2022-09-18T08:42:48.566Z,13.08
2022-09-18T08:47:56.378Z,13.06
2022-09-18T08:53:02.974Z,14.0
2022-09-18T08:58:10.813Z,13.8
2022-09-18T09:03:21.231Z,15.58
2022-09-18T09:08:30.159Z,16.06
2022-09-18T09:13:39.461Z,14.78
2022-09-18T09:18:46.027Z,14.0
2022-09-18T09:23:54.507Z,14.02
2022-09-18T09:29:03.033Z,14.8
2022-09-18T09:34:10.788Z,15.96
2022-09-18T09:39:18.603Z,17.39
2022-09-18T09:44:27.113Z,18.06
2022-09-18T09:49:35.414Z,17.56
2022-09-18T09:54:42.359Z,18.44
2022-09-18T09:59:50.618Z,18.82
2022-09-18T10:04:58.536Z,19.9
2022-09-18T10:10:06.564Z,21.64
2022-09-18T10:15:22.303Z,22.11
2022-09-18T10:20:29.693Z,22.54
2022-09-18T10:25:36.908Z,22.62
2022-09-18T10:30:44.466Z,22.08
2022-09-18T10:35:52.475Z,21.99
2022-09-18T10:41:00.126Z,22.26
2022-09-18T10:46:08.195Z,21.99
2022-09-18T10:51:17.242Z,21.85
2022-09-18T10:56:23.939Z,20.9
2022-09-18T11:01:32.048Z,20.3
2022-09-18T11:06:39.725Z,20.72
2022-09-18T11:11:48.056Z,21.58
2022-09-18T11:16:54.726Z,20.98
2022-09-18T11:22:03.256Z,20.32
2022-09-18T11:27:11.182Z,18.59
2022-09-18T11:32:18.190Z,17.52
2022-09-18T11:37:25.854Z,16.38
2022-09-18T11:42:33.874Z,16.5
2022-09-18T11:47:40.432Z,16.88
2022-09-18T11:52:50.067Z,16.99
2022-09-18T11:57:57.824Z,18.14
2022-09-18T12:03:05.825Z,18.48
2022-09-18T12:08:11.114Z,18.17
2022-09-18T12:13:19.713Z,18.53
2022-09-18T12:18:26.832Z,18.14
2022-09-18T12:23:32.697Z,17.4
2022-09-18T12:28:40.731Z,17.4
2022-09-18T12:33:47.986Z,17.19
2022-09-18T12:38:55.546Z,16.65
2022-09-18T12:44:08.519Z,16.93
2022-09-18T12:49:56.672Z,17.26
2022-09-18T12:55:03.865Z,16.79
2022-09-18T13:00:12.585Z,16.11
2022-09-18T13:05:21.450Z,15.94
2022-09-18T13:10:28.274Z,16.3
2022-09-18T13:15:36.940Z,17.22
2022-09-18T13:20:44.466Z,17.85
2022-09-18T13:25:52.753Z,17.94
2022-09-18T13:31:00.687Z,17.26
2022-09-18T13:36:08.740Z,17.65
2022-09-18T13:41:17.162Z,17.5
2022-09-18T13:46:25.564Z,17.41
2022-09-18T13:51:34.058Z,16.69
2022-09-18T13:56:41.389Z,16.02
2022-09-18T14:01:49.186Z,15.46
2022-09-18T14:06:57.849Z,15.71
2022-09-18T14:12:05.955Z,16.12
2022-09-18T14:17:14.457Z,15.65
2022-09-18T14:22:22.231Z,15.08
2022-09-18T14:27:30.285Z,14.84
2022-09-18T14:32:38.367Z,14.7
2022-09-18T14:37:45.178Z,14.65
2022-09-18T14:42:53.090Z,14.75
2022-09-18T14:48:01.268Z,14.84
2022-09-18T14:53:08.746Z,14.79
2022-09-18T14:58:16.319Z,14.7
2022-09-18T15:03:23.504Z,14.43
2022-09-18T15:08:30.633Z,14.32
2022-09-18T15:13:39.112Z,14.17
2022-09-18T15:18:48.799Z,14.08
2022-09-18T15:23:56.091Z,13.97
2022-09-18T15:29:03.706Z,13.74
2022-09-18T15:34:11.292Z,13.61
2022-09-18T15:39:18.629Z,13.48
2022-09-18T15:44:26.868Z,13.33
2022-09-18T15:49:34.340Z,13.2
2022-09-18T15:54:41.535Z,13.06
2022-09-18T15:59:49.881Z,12.94
2022-09-18T16:04:58.105Z,12.79
2022-09-18T16:10:06.949Z,12.64
2022-09-18T16:15:15.245Z,12.48
2022-09-18T16:20:22.692Z,12.33
2022-09-18T16:25:30.994Z,12.14
2022-09-18T16:30:39.027Z,11.99
2022-09-18T16:35:46.168Z,11.83
2022-09-18T16:40:54.562Z,11.62
2022-09-18T16:46:01.854Z,11.51
2022-09-18T16:51:10.075Z,11.42
2022-09-18T16:56:17.580Z,11.38
2022-09-18T17:01:29.666Z,11.42
2022-09-18T17:06:37.102Z,11.44
2022-09-18T17:11:45.623Z,11.29
2022-09-18T17:16:53.520Z,11.26
2022-09-18T17:22:01.975Z,11.4
2022-09-18T17:27:10.703Z,11.46
2022-09-18T17:32:18.820Z,11.48
2022-09-18T17:37:27.181Z,11.42
2022-09-18T17:42:33.864Z,11.4
2022-09-18T17:47:42.835Z,11.48
2022-09-18T17:52:50.670Z,11.5
2022-09-18T17:57:58.980Z,11.53
2022-09-18T18:03:06.236Z,11.52
2022-09-18T18:08:14.852Z,11.58
2022-09-18T18:13:23.192Z,11.6
2022-09-18T18:18:31.346Z,11.56
2022-09-18T18:23:39.293Z,11.53
2022-09-18T18:28:46.982Z,11.54
2022-09-18T18:33:54.508Z,11.52
2022-09-18T18:39:03.173Z,11.49
2022-09-18T18:44:10.497Z,11.47
2022-09-18T18:49:17.757Z,11.53
2022-09-18T18:54:24.251Z,11.54
2022-09-18T18:59:31.891Z,11.54
2022-09-18T19:04:39.298Z,11.53
2022-09-18T19:09:47.128Z,11.56
2022-09-18T19:14:55.113Z,11.53
2022-09-18T19:20:02.179Z,11.52
2022-09-18T19:25:09.568Z,11.48
2022-09-18T19:30:17.340Z,11.48
2022-09-18T19:35:25.904Z,11.53
2022-09-18T19:40:34.009Z,11.55
2022-09-18T19:45:42.531Z,11.51
2022-09-18T19:50:49.873Z,11.43
2022-09-18T19:55:57.399Z,11.38
2022-09-18T20:01:04.842Z,11.38
2022-09-18T20:06:12.102Z,11.34
2022-09-18T20:11:20.450Z,11.29
2022-09-18T20:16:27.601Z,11.18
2022-09-18T20:21:38.182Z,11.09
2022-09-18T20:26:45.381Z,11.0
2022-09-18T20:31:52.578Z,11.02
2022-09-18T20:37:01.813Z,10.96
2022-09-18T20:42:10.454Z,11.01
2022-09-18T20:47:18.614Z,11.08
2022-09-18T20:52:26.936Z,11.1
2022-09-18T20:57:34.348Z,11.16
2022-09-18T21:02:42.055Z,11.16
2022-09-18T21:07:48.784Z,11.16
2022-09-18T21:12:57.415Z,11.18
2022-09-18T21:18:05.115Z,11.18
2022-09-18T21:23:12.413Z,11.2
2022-09-18T21:28:27.777Z,11.21
2022-09-18T21:33:34.852Z,11.21
2022-09-18T21:38:43.823Z,11.25
2022-09-18T21:43:51.676Z,11.17
2022-09-18T21:48:59.568Z,11.11
2022-09-18T21:54:09.048Z,11.1
2022-09-18T21:59:16.747Z,10.98
2022-09-18T22:04:24.150Z,10.97
2022-09-18T22:09:31.340Z,10.93
2022-09-18T22:14:39.223Z,10.97
2022-09-18T22:19:47.304Z,10.96
2022-09-18T22:24:54.079Z,10.99
2022-09-18T22:30:01.824Z,10.9
2022-09-18T22:35:10.123Z,10.82
2022-09-18T22:40:18.709Z,10.7
2022-09-18T22:45:25.437Z,10.69
2022-09-18T22:50:34.151Z,10.64
2022-09-18T22:55:41.702Z,10.61
2022-09-18T23:00:50.233Z,10.52
2022-09-18T23:05:57.927Z,10.47
2022-09-18T23:11:05.911Z,10.46
2022-09-18T23:16:13.653Z,10.39
2022-09-18T23:21:20.922Z,10.36
2022-09-18T23:26:28.172Z,10.52
2022-09-18T23:31:35.799Z,10.5
2022-09-18T23:36:43.790Z,10.42
2022-09-18T23:41:51.619Z,10.52
2022-09-18T23:46:59.002Z,10.5
2022-09-18T23:52:07.118Z,10.51
2022-09-18T23:57:14.555Z,10.54
